sensor_id;sensor_type;location;lat;lon;timestamp;P1;durP1;ratioP1;P2;durP2;ratioP2
5604;SDS011;9297;47.258;11.362;2024-01-27T00:00:52;8.90;;;6.73;;
5604;SDS011;9297;47.258;11.362;2024-01-27T00:03:19;8.20;;;4.60;;
5604;SDS011;9297;47.258;11.362;2024-01-27T00:05:46;6.83;;;4.93;;
5604;SDS011;9297;47.258;11.362;2024-01-27T00:08:13;5.00;;;4.50;;
5604;SDS011;9297;47.258;11.362;2024-01-27T00:10:42;4.40;;;3.60;;
5604;SDS011;9297;47.258;11.362;2024-01-27T00:13:09;3.87;;;2.97;;
5604;SDS011;9297;47.258;11.362;2024-01-27T00:15:36;2.83;;;2.63;;
5604;SDS011;9297;47.258;11.362;2024-01-27T00:18:03;2.80;;;2.60;;
5604;SDS011;9297;47.258;11.362;2024-01-27T00:20:30;2.70;;;2.50;;
5604;SDS011;9297;47.258;11.362;2024-01-27T00:22:57;2.93;;;2.33;;
5604;SDS011;9297;47.258;11.362;2024-01-27T00:25:24;1.97;;;1.87;;
5604;SDS011;9297;47.258;11.362;2024-01-27T00:27:52;1.70;;;1.60;;
5604;SDS011;9297;47.258;11.362;2024-01-27T00:30:19;2.40;;;2.20;;
5604;SDS011;9297;47.258;11.362;2024-01-27T00:32:46;4.27;;;1.70;;
5604;SDS011;9297;47.258;11.362;2024-01-27T00:35:13;2.33;;;1.80;;
5604;SDS011;9297;47.258;11.362;2024-01-27T00:37:41;2.00;;;1.40;;
5604;SDS011;9297;47.258;11.362;2024-01-27T00:40:08;2.50;;;1.57;;
5604;SDS011;9297;47.258;11.362;2024-01-27T00:42:36;1.53;;;1.43;;
5604;SDS011;9297;47.258;11.362;2024-01-27T00:45:05;2.73;;;1.80;;
5604;SDS011;9297;47.258;11.362;2024-01-27T00:47:33;1.60;;;1.50;;
5604;SDS011;9297;47.258;11.362;2024-01-27T00:50:00;1.93;;;1.83;;
5604;SDS011;9297;47.258;11.362;2024-01-27T00:52:27;2.40;;;1.67;;
5604;SDS011;9297;47.258;11.362;2024-01-27T00:54:54;2.40;;;1.50;;
5604;SDS011;9297;47.258;11.362;2024-01-27T00:57:21;2.43;;;1.83;;
5604;SDS011;9297;47.258;11.362;2024-01-27T00:59:48;3.80;;;2.00;;
5604;SDS011;9297;47.258;11.362;2024-01-27T01:02:16;2.60;;;2.00;;
5604;SDS011;9297;47.258;11.362;2024-01-27T01:04:43;3.23;;;2.60;;
5604;SDS011;9297;47.258;11.362;2024-01-27T01:07:10;3.03;;;2.10;;
5604;SDS011;9297;47.258;11.362;2024-01-27T01:09:37;3.60;;;1.83;;
5604;SDS011;9297;47.258;11.362;2024-01-27T01:12:04;2.87;;;2.03;;
5604;SDS011;9297;47.258;11.362;2024-01-27T01:14:32;5.60;;;1.77;;
5604;SDS011;9297;47.258;11.362;2024-01-27T01:16:59;3.23;;;2.20;;
5604;SDS011;9297;47.258;11.362;2024-01-27T01:19:27;4.27;;;2.13;;
5604;SDS011;9297;47.258;11.362;2024-01-27T01:21:54;2.80;;;1.87;;
5604;SDS011;9297;47.258;11.362;2024-01-27T01:24:21;13.37;;;4.70;;
5604;SDS011;9297;47.258;11.362;2024-01-27T01:26:48;4.60;;;2.93;;
5604;SDS011;9297;47.258;11.362;2024-01-27T01:29:15;4.53;;;2.50;;
5604;SDS011;9297;47.258;11.362;2024-01-27T01:31:42;9.23;;;3.93;;
5604;SDS011;9297;47.258;11.362;2024-01-27T01:34:09;5.70;;;2.97;;
5604;SDS011;9297;47.258;11.362;2024-01-27T01:36:38;5.87;;;2.47;;
5604;SDS011;9297;47.258;11.362;2024-01-27T01:39:06;5.53;;;2.40;;
5604;SDS011;9297;47.258;11.362;2024-01-27T01:41:33;3.40;;;2.20;;
5604;SDS011;9297;47.258;11.362;2024-01-27T01:44:00;4.60;;;2.23;;
5604;SDS011;9297;47.258;11.362;2024-01-27T01:46:27;2.63;;;2.10;;
5604;SDS011;9297;47.258;11.362;2024-01-27T01:48:54;2.93;;;2.13;;
5604;SDS011;9297;47.258;11.362;2024-01-27T01:51:21;4.83;;;2.90;;
5604;SDS011;9297;47.258;11.362;2024-01-27T01:53:50;4.73;;;2.73;;
5604;SDS011;9297;47.258;11.362;2024-01-27T01:56:20;7.20;;;3.43;;
5604;SDS011;9297;47.258;11.362;2024-01-27T01:58:47;4.97;;;2.87;;
5604;SDS011;9297;47.258;11.362;2024-01-27T02:01:15;10.33;;;3.23;;
5604;SDS011;9297;47.258;11.362;2024-01-27T02:03:51;4.17;;;2.97;;
5604;SDS011;9297;47.258;11.362;2024-01-27T02:06:18;2.47;;;2.23;;
5604;SDS011;9297;47.258;11.362;2024-01-27T02:08:45;4.93;;;2.30;;
5604;SDS011;9297;47.258;11.362;2024-01-27T02:11:14;2.77;;;2.33;;
5604;SDS011;9297;47.258;11.362;2024-01-27T02:13:41;2.47;;;1.93;;
5604;SDS011;9297;47.258;11.362;2024-01-27T02:16:08;2.60;;;2.40;;
5604;SDS011;9297;47.258;11.362;2024-01-27T02:18:35;2.17;;;2.03;;
5604;SDS011;9297;47.258;11.362;2024-01-27T02:21:02;1.80;;;1.70;;
5604;SDS011;9297;47.258;11.362;2024-01-27T02:23:29;1.93;;;1.83;;
5604;SDS011;9297;47.258;11.362;2024-01-27T02:25:58;2.20;;;2.00;;
5604;SDS011;9297;47.258;11.362;2024-01-27T02:28:24;3.03;;;1.73;;
5604;SDS011;9297;47.258;11.362;2024-01-27T02:30:51;3.13;;;1.83;;
5604;SDS011;9297;47.258;11.362;2024-01-27T02:33:18;1.83;;;1.77;;
5604;SDS011;9297;47.258;11.362;2024-01-27T02:35:45;2.10;;;1.90;;
5604;SDS011;9297;47.258;11.362;2024-01-27T02:38:12;3.30;;;1.83;;
5604;SDS011;9297;47.258;11.362;2024-01-27T02:40:39;4.63;;;2.03;;
5604;SDS011;9297;47.258;11.362;2024-01-27T02:43:08;1.53;;;1.50;;
5604;SDS011;9297;47.258;11.362;2024-01-27T02:45:35;2.20;;;1.60;;
5604;SDS011;9297;47.258;11.362;2024-01-27T02:48:02;1.70;;;1.60;;
5604;SDS011;9297;47.258;11.362;2024-01-27T02:50:29;2.07;;;1.70;;
5604;SDS011;9297;47.258;11.362;2024-01-27T02:52:56;1.67;;;1.40;;
5604;SDS011;9297;47.258;11.362;2024-01-27T02:55:23;1.50;;;1.40;;
5604;SDS011;9297;47.258;11.362;2024-01-27T02:57:50;1.53;;;1.43;;
5604;SDS011;9297;47.258;11.362;2024-01-27T03:00:18;1.63;;;1.53;;
5604;SDS011;9297;47.258;11.362;2024-01-27T03:02:45;2.13;;;2.03;;
5604;SDS011;9297;47.258;11.362;2024-01-27T03:05:12;1.97;;;1.90;;
5604;SDS011;9297;47.258;11.362;2024-01-27T03:07:40;2.00;;;1.90;;
5604;SDS011;9297;47.258;11.362;2024-01-27T03:10:07;1.93;;;1.83;;
5604;SDS011;9297;47.258;11.362;2024-01-27T03:12:34;1.90;;;1.80;;
5604;SDS011;9297;47.258;11.362;2024-01-27T03:15:01;2.27;;;2.03;;
5604;SDS011;9297;47.258;11.362;2024-01-27T03:17:29;1.30;;;1.30;;
5604;SDS011;9297;47.258;11.362;2024-01-27T03:19:56;1.40;;;1.40;;
5604;SDS011;9297;47.258;11.362;2024-01-27T03:22:23;2.30;;;1.20;;
5604;SDS011;9297;47.258;11.362;2024-01-27T03:24:50;1.33;;;1.30;;
5604;SDS011;9297;47.258;11.362;2024-01-27T03:27:17;1.50;;;1.40;;
5604;SDS011;9297;47.258;11.362;2024-01-27T03:29:44;2.03;;;1.73;;
5604;SDS011;9297;47.258;11.362;2024-01-27T03:32:11;1.07;;;1.07;;
5604;SDS011;9297;47.258;11.362;2024-01-27T03:34:42;1.33;;;1.33;;
5604;SDS011;9297;47.258;11.362;2024-01-27T03:37:10;1.40;;;1.37;;
5604;SDS011;9297;47.258;11.362;2024-01-27T03:39:37;3.03;;;1.73;;
5604;SDS011;9297;47.258;11.362;2024-01-27T03:42:04;1.30;;;1.30;;
5604;SDS011;9297;47.258;11.362;2024-01-27T03:44:31;1.80;;;1.53;;
5604;SDS011;9297;47.258;11.362;2024-01-27T03:46:58;2.03;;;1.70;;
5604;SDS011;9297;47.258;11.362;2024-01-27T03:49:25;1.40;;;1.30;;
5604;SDS011;9297;47.258;11.362;2024-01-27T03:51:53;1.60;;;1.50;;
5604;SDS011;9297;47.258;11.362;2024-01-27T03:54:20;2.50;;;1.57;;
5604;SDS011;9297;47.258;11.362;2024-01-27T03:56:47;2.30;;;1.67;;
5604;SDS011;9297;47.258;11.362;2024-01-27T03:59:14;2.20;;;1.70;;
5604;SDS011;9297;47.258;11.362;2024-01-27T04:01:41;1.50;;;1.50;;
5604;SDS011;9297;47.258;11.362;2024-01-27T04:04:08;2.00;;;1.80;;
5604;SDS011;9297;47.258;11.362;2024-01-27T04:06:35;2.03;;;1.87;;
5604;SDS011;9297;47.258;11.362;2024-01-27T04:09:04;1.50;;;1.40;;
5604;SDS011;9297;47.258;11.362;2024-01-27T04:11:31;1.73;;;1.50;;
5604;SDS011;9297;47.258;11.362;2024-01-27T04:13:58;1.73;;;1.63;;
5604;SDS011;9297;47.258;11.362;2024-01-27T04:16:26;1.70;;;1.53;;
5604;SDS011;9297;47.258;11.362;2024-01-27T04:18:52;1.93;;;1.83;;
5604;SDS011;9297;47.258;11.362;2024-01-27T04:21:20;2.33;;;1.50;;
5604;SDS011;9297;47.258;11.362;2024-01-27T04:23:47;2.97;;;1.70;;
5604;SDS011;9297;47.258;11.362;2024-01-27T04:26:15;5.43;;;1.87;;
5604;SDS011;9297;47.258;11.362;2024-01-27T04:28:42;2.10;;;2.00;;
5604;SDS011;9297;47.258;11.362;2024-01-27T04:31:09;1.60;;;1.50;;
5604;SDS011;9297;47.258;11.362;2024-01-27T04:33:36;3.60;;;2.03;;
5604;SDS011;9297;47.258;11.362;2024-01-27T04:36:03;1.50;;;1.40;;
5604;SDS011;9297;47.258;11.362;2024-01-27T04:38:31;2.77;;;1.57;;
5604;SDS011;9297;47.258;11.362;2024-01-27T04:40:58;3.13;;;1.80;;
5604;SDS011;9297;47.258;11.362;2024-01-27T04:43:26;4.17;;;1.83;;
5604;SDS011;9297;47.258;11.362;2024-01-27T04:45:53;2.20;;;2.00;;
5604;SDS011;9297;47.258;11.362;2024-01-27T04:48:20;2.90;;;2.33;;
5604;SDS011;9297;47.258;11.362;2024-01-27T04:50:48;2.33;;;2.13;;
5604;SDS011;9297;47.258;11.362;2024-01-27T04:53:15;2.20;;;2.10;;
5604;SDS011;9297;47.258;11.362;2024-01-27T04:55:41;1.90;;;1.60;;
5604;SDS011;9297;47.258;11.362;2024-01-27T04:58:08;2.70;;;2.00;;
5604;SDS011;9297;47.258;11.362;2024-01-27T05:00:37;3.07;;;2.83;;
5604;SDS011;9297;47.258;11.362;2024-01-27T05:03:04;3.33;;;2.17;;
5604;SDS011;9297;47.258;11.362;2024-01-27T05:05:31;2.30;;;2.00;;
5604;SDS011;9297;47.258;11.362;2024-01-27T05:08:02;3.40;;;1.80;;
5604;SDS011;9297;47.258;11.362;2024-01-27T05:10:29;2.20;;;2.10;;
5604;SDS011;9297;47.258;11.362;2024-01-27T05:12:56;2.23;;;2.10;;
5604;SDS011;9297;47.258;11.362;2024-01-27T05:15:23;1.80;;;1.70;;
5604;SDS011;9297;47.258;11.362;2024-01-27T05:17:52;4.97;;;2.33;;
5604;SDS011;9297;47.258;11.362;2024-01-27T05:20:19;2.63;;;2.17;;
5604;SDS011;9297;47.258;11.362;2024-01-27T05:22:46;3.47;;;2.37;;
5604;SDS011;9297;47.258;11.362;2024-01-27T05:25:13;2.00;;;1.90;;
5604;SDS011;9297;47.258;11.362;2024-01-27T05:27:40;3.83;;;2.30;;
5604;SDS011;9297;47.258;11.362;2024-01-27T05:30:08;2.97;;;2.23;;
5604;SDS011;9297;47.258;11.362;2024-01-27T05:32:35;2.20;;;2.00;;
5604;SDS011;9297;47.258;11.362;2024-01-27T05:35:04;2.87;;;1.73;;
5604;SDS011;9297;47.258;11.362;2024-01-27T05:37:32;2.47;;;2.37;;
5604;SDS011;9297;47.258;11.362;2024-01-27T05:39:59;3.23;;;2.80;;
5604;SDS011;9297;47.258;11.362;2024-01-27T05:42:26;2.00;;;1.90;;
5604;SDS011;9297;47.258;11.362;2024-01-27T05:44:53;3.57;;;2.30;;
5604;SDS011;9297;47.258;11.362;2024-01-27T05:47:20;2.83;;;2.30;;
5604;SDS011;9297;47.258;11.362;2024-01-27T05:49:47;2.43;;;2.10;;
5604;SDS011;9297;47.258;11.362;2024-01-27T05:52:15;2.50;;;2.40;;
5604;SDS011;9297;47.258;11.362;2024-01-27T05:54:51;2.50;;;2.40;;
5604;SDS011;9297;47.258;11.362;2024-01-27T05:57:17;2.40;;;2.30;;
5604;SDS011;9297;47.258;11.362;2024-01-27T05:59:45;3.60;;;1.97;;
5604;SDS011;9297;47.258;11.362;2024-01-27T06:02:12;2.00;;;1.90;;
5604;SDS011;9297;47.258;11.362;2024-01-27T06:04:39;2.53;;;1.87;;
5604;SDS011;9297;47.258;11.362;2024-01-27T06:07:06;2.53;;;2.33;;
5604;SDS011;9297;47.258;11.362;2024-01-27T06:09:36;2.40;;;2.10;;
5604;SDS011;9297;47.258;11.362;2024-01-27T06:12:04;2.53;;;2.33;;
5604;SDS011;9297;47.258;11.362;2024-01-27T06:14:31;3.07;;;1.97;;
5604;SDS011;9297;47.258;11.362;2024-01-27T06:16:58;2.10;;;1.90;;
5604;SDS011;9297;47.258;11.362;2024-01-27T06:19:25;2.07;;;1.87;;
5604;SDS011;9297;47.258;11.362;2024-01-27T06:21:52;2.07;;;2.03;;
5604;SDS011;9297;47.258;11.362;2024-01-27T06:24:19;2.07;;;1.97;;
5604;SDS011;9297;47.258;11.362;2024-01-27T06:26:47;3.27;;;2.73;;
5604;SDS011;9297;47.258;11.362;2024-01-27T06:29:14;2.60;;;2.40;;
5604;SDS011;9297;47.258;11.362;2024-01-27T06:31:42;4.20;;;2.90;;
5604;SDS011;9297;47.258;11.362;2024-01-27T06:34:09;7.03;;;3.27;;
5604;SDS011;9297;47.258;11.362;2024-01-27T06:36:36;3.37;;;3.10;;
5604;SDS011;9297;47.258;11.362;2024-01-27T06:39:03;4.60;;;3.10;;
5604;SDS011;9297;47.258;11.362;2024-01-27T06:41:30;3.13;;;2.57;;
5604;SDS011;9297;47.258;11.362;2024-01-27T06:43:59;3.53;;;1.90;;
5604;SDS011;9297;47.258;11.362;2024-01-27T06:46:26;3.03;;;2.67;;
5604;SDS011;9297;47.258;11.362;2024-01-27T06:48:52;2.33;;;2.23;;
5604;SDS011;9297;47.258;11.362;2024-01-27T06:51:20;3.00;;;2.80;;
5604;SDS011;9297;47.258;11.362;2024-01-27T06:53:47;2.40;;;2.23;;
5604;SDS011;9297;47.258;11.362;2024-01-27T06:56:14;3.63;;;2.57;;
5604;SDS011;9297;47.258;11.362;2024-01-27T06:58:41;2.73;;;2.20;;
5604;SDS011;9297;47.258;11.362;2024-01-27T07:01:09;2.93;;;2.73;;
5604;SDS011;9297;47.258;11.362;2024-01-27T07:03:36;2.77;;;2.63;;
5604;SDS011;9297;47.258;11.362;2024-01-27T07:06:03;2.60;;;2.40;;
5604;SDS011;9297;47.258;11.362;2024-01-27T07:08:31;2.83;;;2.00;;
5604;SDS011;9297;47.258;11.362;2024-01-27T07:11:01;4.77;;;2.57;;
5604;SDS011;9297;47.258;11.362;2024-01-27T07:13:28;3.13;;;2.30;;
5604;SDS011;9297;47.258;11.362;2024-01-27T07:15:55;3.80;;;2.97;;
5604;SDS011;9297;47.258;11.362;2024-01-27T07:18:24;3.00;;;2.77;;
5604;SDS011;9297;47.258;11.362;2024-01-27T07:20:51;2.80;;;2.60;;
5604;SDS011;9297;47.258;11.362;2024-01-27T07:23:18;5.53;;;3.00;;
5604;SDS011;9297;47.258;11.362;2024-01-27T07:25:45;4.43;;;2.70;;
5604;SDS011;9297;47.258;11.362;2024-01-27T07:28:12;3.77;;;3.33;;
5604;SDS011;9297;47.258;11.362;2024-01-27T07:30:39;7.77;;;3.93;;
5604;SDS011;9297;47.258;11.362;2024-01-27T07:33:06;5.60;;;3.50;;
5604;SDS011;9297;47.258;11.362;2024-01-27T07:35:35;6.87;;;3.53;;
5604;SDS011;9297;47.258;11.362;2024-01-27T07:38:02;7.10;;;3.37;;
5604;SDS011;9297;47.258;11.362;2024-01-27T07:40:29;5.33;;;2.90;;
5604;SDS011;9297;47.258;11.362;2024-01-27T07:42:56;3.67;;;3.10;;
5604;SDS011;9297;47.258;11.362;2024-01-27T07:45:23;5.20;;;3.27;;
5604;SDS011;9297;47.258;11.362;2024-01-27T07:47:49;3.97;;;3.57;;
5604;SDS011;9297;47.258;11.362;2024-01-27T07:50:17;5.23;;;3.87;;
5604;SDS011;9297;47.258;11.362;2024-01-27T07:52:45;4.23;;;3.07;;
5604;SDS011;9297;47.258;11.362;2024-01-27T07:55:12;2.73;;;2.50;;
5604;SDS011;9297;47.258;11.362;2024-01-27T07:57:39;5.10;;;4.13;;
5604;SDS011;9297;47.258;11.362;2024-01-27T08:00:06;4.43;;;3.33;;
5604;SDS011;9297;47.258;11.362;2024-01-27T08:02:34;5.60;;;4.00;;
5604;SDS011;9297;47.258;11.362;2024-01-27T08:05:02;6.00;;;4.23;;
5604;SDS011;9297;47.258;11.362;2024-01-27T08:07:29;4.60;;;2.97;;
5604;SDS011;9297;47.258;11.362;2024-01-27T08:09:58;4.50;;;2.50;;
5604;SDS011;9297;47.258;11.362;2024-01-27T08:12:25;2.17;;;1.97;;
5604;SDS011;9297;47.258;11.362;2024-01-27T08:14:52;3.60;;;2.30;;
5604;SDS011;9297;47.258;11.362;2024-01-27T08:17:19;3.60;;;2.23;;
5604;SDS011;9297;47.258;11.362;2024-01-27T08:19:46;3.77;;;2.50;;
5604;SDS011;9297;47.258;11.362;2024-01-27T08:22:13;3.67;;;2.20;;
5604;SDS011;9297;47.258;11.362;2024-01-27T08:24:40;4.43;;;2.20;;
5604;SDS011;9297;47.258;11.362;2024-01-27T08:27:08;4.00;;;3.20;;
5604;SDS011;9297;47.258;11.362;2024-01-27T08:29:35;5.10;;;2.90;;
5604;SDS011;9297;47.258;11.362;2024-01-27T08:32:02;4.27;;;3.00;;
5604;SDS011;9297;47.258;11.362;2024-01-27T08:34:30;4.20;;;3.20;;
5604;SDS011;9297;47.258;11.362;2024-01-27T08:37:00;7.97;;;3.60;;
5604;SDS011;9297;47.258;11.362;2024-01-27T08:39:28;3.97;;;2.90;;
5604;SDS011;9297;47.258;11.362;2024-01-27T08:41:55;4.30;;;3.07;;
5604;SDS011;9297;47.258;11.362;2024-01-27T08:44:24;4.67;;;3.63;;
5604;SDS011;9297;47.258;11.362;2024-01-27T08:46:51;8.03;;;4.60;;
5604;SDS011;9297;47.258;11.362;2024-01-27T08:49:18;12.60;;;6.20;;
5604;SDS011;9297;47.258;11.362;2024-01-27T08:51:45;15.03;;;9.17;;
5604;SDS011;9297;47.258;11.362;2024-01-27T08:54:12;9.83;;;5.70;;
5604;SDS011;9297;47.258;11.362;2024-01-27T08:56:39;5.43;;;4.10;;
5604;SDS011;9297;47.258;11.362;2024-01-27T08:59:06;4.63;;;3.60;;
5604;SDS011;9297;47.258;11.362;2024-01-27T09:01:34;3.60;;;3.30;;
5604;SDS011;9297;47.258;11.362;2024-01-27T09:04:01;4.67;;;3.13;;
5604;SDS011;9297;47.258;11.362;2024-01-27T09:06:28;6.97;;;5.43;;
5604;SDS011;9297;47.258;11.362;2024-01-27T09:08:57;6.17;;;5.20;;
5604;SDS011;9297;47.258;11.362;2024-01-27T09:11:24;9.73;;;4.70;;
5604;SDS011;9297;47.258;11.362;2024-01-27T09:13:51;9.50;;;4.43;;
5604;SDS011;9297;47.258;11.362;2024-01-27T09:16:18;5.10;;;4.07;;
5604;SDS011;9297;47.258;11.362;2024-01-27T09:18:46;4.97;;;3.93;;
5604;SDS011;9297;47.258;11.362;2024-01-27T09:21:13;4.37;;;3.80;;
5604;SDS011;9297;47.258;11.362;2024-01-27T09:23:40;4.60;;;4.07;;
5604;SDS011;9297;47.258;11.362;2024-01-27T09:26:07;7.87;;;3.90;;
5604;SDS011;9297;47.258;11.362;2024-01-27T09:28:34;6.33;;;3.77;;
5604;SDS011;9297;47.258;11.362;2024-01-27T09:31:01;6.13;;;4.23;;
5604;SDS011;9297;47.258;11.362;2024-01-27T09:33:28;4.97;;;4.47;;
5604;SDS011;9297;47.258;11.362;2024-01-27T09:35:57;4.83;;;4.20;;
5604;SDS011;9297;47.258;11.362;2024-01-27T09:38:24;9.67;;;3.83;;
5604;SDS011;9297;47.258;11.362;2024-01-27T09:40:51;5.13;;;4.63;;
5604;SDS011;9297;47.258;11.362;2024-01-27T09:43:18;5.93;;;3.57;;
5604;SDS011;9297;47.258;11.362;2024-01-27T09:45:47;6.43;;;3.87;;
5604;SDS011;9297;47.258;11.362;2024-01-27T09:48:14;4.13;;;3.73;;
5604;SDS011;9297;47.258;11.362;2024-01-27T09:50:41;4.93;;;3.60;;
5604;SDS011;9297;47.258;11.362;2024-01-27T09:53:11;5.67;;;3.77;;
5604;SDS011;9297;47.258;11.362;2024-01-27T09:55:38;6.87;;;3.70;;
5604;SDS011;9297;47.258;11.362;2024-01-27T09:58:05;5.57;;;4.07;;
5604;SDS011;9297;47.258;11.362;2024-01-27T10:00:33;5.63;;;4.30;;
5604;SDS011;9297;47.258;11.362;2024-01-27T10:03:02;7.73;;;4.60;;
5604;SDS011;9297;47.258;11.362;2024-01-27T10:05:31;5.83;;;3.83;;
5604;SDS011;9297;47.258;11.362;2024-01-27T10:07:59;7.00;;;4.20;;
5604;SDS011;9297;47.258;11.362;2024-01-27T10:10:27;7.60;;;4.10;;
5604;SDS011;9297;47.258;11.362;2024-01-27T10:12:54;5.47;;;4.20;;
5604;SDS011;9297;47.258;11.362;2024-01-27T10:15:24;7.67;;;4.03;;
5604;SDS011;9297;47.258;11.362;2024-01-27T10:17:51;5.53;;;3.70;;
5604;SDS011;9297;47.258;11.362;2024-01-27T10:20:18;7.23;;;4.53;;
5604;SDS011;9297;47.258;11.362;2024-01-27T10:22:52;8.30;;;4.63;;
5604;SDS011;9297;47.258;11.362;2024-01-27T10:25:21;7.33;;;4.37;;
5604;SDS011;9297;47.258;11.362;2024-01-27T10:27:49;5.80;;;3.83;;
5604;SDS011;9297;47.258;11.362;2024-01-27T10:30:18;5.30;;;3.93;;
5604;SDS011;9297;47.258;11.362;2024-01-27T10:32:54;7.57;;;4.80;;
5604;SDS011;9297;47.258;11.362;2024-01-27T10:35:21;6.33;;;3.90;;
5604;SDS011;9297;47.258;11.362;2024-01-27T10:37:51;5.07;;;3.50;;
5604;SDS011;9297;47.258;11.362;2024-01-27T10:40:21;5.37;;;4.17;;
5604;SDS011;9297;47.258;11.362;2024-01-27T10:42:51;7.97;;;4.10;;
5604;SDS011;9297;47.258;11.362;2024-01-27T10:45:27;5.97;;;4.20;;
5604;SDS011;9297;47.258;11.362;2024-01-27T10:47:56;4.40;;;3.63;;
5604;SDS011;9297;47.258;11.362;2024-01-27T10:50:26;4.13;;;3.47;;
5604;SDS011;9297;47.258;11.362;2024-01-27T10:52:53;6.47;;;3.40;;
5604;SDS011;9297;47.258;11.362;2024-01-27T10:55:23;6.37;;;3.60;;
5604;SDS011;9297;47.258;11.362;2024-01-27T10:57:52;3.60;;;3.10;;
5604;SDS011;9297;47.258;11.362;2024-01-27T11:00:22;3.87;;;2.47;;
5604;SDS011;9297;47.258;11.362;2024-01-27T11:02:51;2.53;;;2.33;;
5604;SDS011;9297;47.258;11.362;2024-01-27T11:05:20;2.83;;;2.63;;
5604;SDS011;9297;47.258;11.362;2024-01-27T11:07:50;5.53;;;1.90;;
5604;SDS011;9297;47.258;11.362;2024-01-27T11:10:17;2.90;;;2.70;;
5604;SDS011;9297;47.258;11.362;2024-01-27T11:12:44;3.17;;;2.03;;
5604;SDS011;9297;47.258;11.362;2024-01-27T11:15:14;4.40;;;2.00;;
5604;SDS011;9297;47.258;11.362;2024-01-27T11:17:42;2.73;;;1.87;;
5604;SDS011;9297;47.258;11.362;2024-01-27T11:20:09;3.10;;;1.67;;
5604;SDS011;9297;47.258;11.362;2024-01-27T11:22:37;2.40;;;1.87;;
5604;SDS011;9297;47.258;11.362;2024-01-27T11:25:07;1.23;;;1.10;;
5604;SDS011;9297;47.258;11.362;2024-01-27T11:27:40;1.80;;;1.23;;
5604;SDS011;9297;47.258;11.362;2024-01-27T11:30:24;3.20;;;1.50;;
5604;SDS011;9297;47.258;11.362;2024-01-27T11:32:54;2.03;;;1.27;;
5604;SDS011;9297;47.258;11.362;2024-01-27T11:35:21;3.57;;;1.70;;
5604;SDS011;9297;47.258;11.362;2024-01-27T11:37:48;1.73;;;1.63;;
5604;SDS011;9297;47.258;11.362;2024-01-27T11:40:16;3.57;;;2.07;;
5604;SDS011;9297;47.258;11.362;2024-01-27T11:42:43;2.20;;;1.73;;
5604;SDS011;9297;47.258;11.362;2024-01-27T11:45:10;2.67;;;2.47;;
5604;SDS011;9297;47.258;11.362;2024-01-27T11:47:38;2.43;;;2.23;;
5604;SDS011;9297;47.258;11.362;2024-01-27T11:50:05;2.33;;;1.40;;
5604;SDS011;9297;47.258;11.362;2024-01-27T11:52:32;3.77;;;1.77;;
5604;SDS011;9297;47.258;11.362;2024-01-27T11:55:00;1.97;;;1.33;;
5604;SDS011;9297;47.258;11.362;2024-01-27T11:57:27;1.30;;;1.20;;
5604;SDS011;9297;47.258;11.362;2024-01-27T11:59:55;1.53;;;1.43;;
5604;SDS011;9297;47.258;11.362;2024-01-27T12:02:22;1.70;;;1.60;;
5604;SDS011;9297;47.258;11.362;2024-01-27T12:04:51;1.70;;;1.47;;
5604;SDS011;9297;47.258;11.362;2024-01-27T12:07:18;1.87;;;1.77;;
5604;SDS011;9297;47.258;11.362;2024-01-27T12:09:48;2.63;;;1.60;;
5604;SDS011;9297;47.258;11.362;2024-01-27T12:12:15;2.17;;;1.70;;
5604;SDS011;9297;47.258;11.362;2024-01-27T12:14:44;2.30;;;2.10;;
5604;SDS011;9297;47.258;11.362;2024-01-27T12:17:12;2.47;;;1.93;;
5604;SDS011;9297;47.258;11.362;2024-01-27T12:19:39;3.40;;;2.10;;
5604;SDS011;9297;47.258;11.362;2024-01-27T12:22:21;4.17;;;1.90;;
5604;SDS011;9297;47.258;11.362;2024-01-27T12:24:48;4.57;;;2.73;;
5604;SDS011;9297;47.258;11.362;2024-01-27T12:27:16;2.87;;;2.60;;
5604;SDS011;9297;47.258;11.362;2024-01-27T12:29:43;3.07;;;2.53;;
5604;SDS011;9297;47.258;11.362;2024-01-27T12:32:10;2.57;;;2.37;;
5604;SDS011;9297;47.258;11.362;2024-01-27T12:34:39;2.67;;;2.57;;
5604;SDS011;9297;47.258;11.362;2024-01-27T12:37:07;3.73;;;2.03;;
5604;SDS011;9297;47.258;11.362;2024-01-27T12:39:36;2.07;;;1.77;;
5604;SDS011;9297;47.258;11.362;2024-01-27T12:42:03;4.73;;;2.10;;
5604;SDS011;9297;47.258;11.362;2024-01-27T12:44:31;3.10;;;1.90;;
5604;SDS011;9297;47.258;11.362;2024-01-27T12:46:58;2.70;;;2.50;;
5604;SDS011;9297;47.258;11.362;2024-01-27T12:49:25;2.83;;;2.20;;
5604;SDS011;9297;47.258;11.362;2024-01-27T12:51:52;2.50;;;1.63;;
5604;SDS011;9297;47.258;11.362;2024-01-27T12:54:19;1.97;;;1.87;;
5604;SDS011;9297;47.258;11.362;2024-01-27T12:56:47;2.33;;;2.07;;
5604;SDS011;9297;47.258;11.362;2024-01-27T12:59:14;2.90;;;2.17;;
5604;SDS011;9297;47.258;11.362;2024-01-27T13:01:41;1.67;;;1.57;;
5604;SDS011;9297;47.258;11.362;2024-01-27T13:04:08;2.10;;;1.20;;
5604;SDS011;9297;47.258;11.362;2024-01-27T13:06:35;2.87;;;1.60;;
5604;SDS011;9297;47.258;11.362;2024-01-27T13:09:03;1.20;;;1.10;;
5604;SDS011;9297;47.258;11.362;2024-01-27T13:11:30;1.30;;;1.20;;
5604;SDS011;9297;47.258;11.362;2024-01-27T13:13:58;1.83;;;1.30;;
5604;SDS011;9297;47.258;11.362;2024-01-27T13:16:25;1.37;;;1.17;;
5604;SDS011;9297;47.258;11.362;2024-01-27T13:18:52;2.00;;;1.47;;
5604;SDS011;9297;47.258;11.362;2024-01-27T13:21:19;1.70;;;1.60;;
5604;SDS011;9297;47.258;11.362;2024-01-27T13:23:46;2.27;;;2.07;;
5604;SDS011;9297;47.258;11.362;2024-01-27T13:26:13;3.87;;;2.00;;
5604;SDS011;9297;47.258;11.362;2024-01-27T13:28:45;3.00;;;1.80;;
5604;SDS011;9297;47.258;11.362;2024-01-27T13:31:13;1.53;;;1.10;;
5604;SDS011;9297;47.258;11.362;2024-01-27T13:33:41;2.60;;;1.70;;
5604;SDS011;9297;47.258;11.362;2024-01-27T13:36:08;2.60;;;2.00;;
5604;SDS011;9297;47.258;11.362;2024-01-27T13:38:35;2.33;;;1.23;;
5604;SDS011;9297;47.258;11.362;2024-01-27T13:41:03;2.73;;;1.80;;
5604;SDS011;9297;47.258;11.362;2024-01-27T13:43:30;1.60;;;1.33;;
5604;SDS011;9297;47.258;11.362;2024-01-27T13:45:56;1.90;;;1.57;;
5604;SDS011;9297;47.258;11.362;2024-01-27T13:48:25;1.40;;;1.30;;
5604;SDS011;9297;47.258;11.362;2024-01-27T13:50:52;1.50;;;1.37;;
5604;SDS011;9297;47.258;11.362;2024-01-27T13:53:20;1.70;;;1.60;;
5604;SDS011;9297;47.258;11.362;2024-01-27T13:55:48;1.93;;;1.60;;
5604;SDS011;9297;47.258;11.362;2024-01-27T13:58:15;2.37;;;1.40;;
5604;SDS011;9297;47.258;11.362;2024-01-27T14:00:42;1.77;;;1.27;;
5604;SDS011;9297;47.258;11.362;2024-01-27T14:03:10;2.03;;;1.73;;
5604;SDS011;9297;47.258;11.362;2024-01-27T14:05:38;1.60;;;1.50;;
5604;SDS011;9297;47.258;11.362;2024-01-27T14:08:05;3.30;;;1.97;;
5604;SDS011;9297;47.258;11.362;2024-01-27T14:10:33;2.23;;;1.90;;
5604;SDS011;9297;47.258;11.362;2024-01-27T14:13:00;1.73;;;1.40;;
5604;SDS011;9297;47.258;11.362;2024-01-27T14:15:27;2.37;;;1.90;;
5604;SDS011;9297;47.258;11.362;2024-01-27T14:17:54;1.40;;;1.30;;
5604;SDS011;9297;47.258;11.362;2024-01-27T14:20:21;3.33;;;1.47;;
5604;SDS011;9297;47.258;11.362;2024-01-27T14:22:50;2.93;;;2.30;;
5604;SDS011;9297;47.258;11.362;2024-01-27T14:25:17;3.47;;;1.80;;
5604;SDS011;9297;47.258;11.362;2024-01-27T14:27:44;1.87;;;1.73;;
5604;SDS011;9297;47.258;11.362;2024-01-27T14:30:11;2.67;;;1.77;;
5604;SDS011;9297;47.258;11.362;2024-01-27T14:32:39;1.70;;;1.60;;
5604;SDS011;9297;47.258;11.362;2024-01-27T14:35:07;2.50;;;1.47;;
5604;SDS011;9297;47.258;11.362;2024-01-27T14:37:34;1.70;;;1.20;;
5604;SDS011;9297;47.258;11.362;2024-01-27T14:40:02;2.37;;;1.67;;
5604;SDS011;9297;47.258;11.362;2024-01-27T14:42:30;2.10;;;1.80;;
5604;SDS011;9297;47.258;11.362;2024-01-27T14:45:00;2.03;;;1.60;;
5604;SDS011;9297;47.258;11.362;2024-01-27T14:47:27;2.27;;;2.07;;
5604;SDS011;9297;47.258;11.362;2024-01-27T14:49:54;1.70;;;1.60;;
5604;SDS011;9297;47.258;11.362;2024-01-27T14:52:21;2.73;;;1.40;;
5604;SDS011;9297;47.258;11.362;2024-01-27T14:54:48;2.00;;;1.80;;
5604;SDS011;9297;47.258;11.362;2024-01-27T14:57:16;4.10;;;2.60;;
5604;SDS011;9297;47.258;11.362;2024-01-27T14:59:43;10.57;;;4.07;;
5604;SDS011;9297;47.258;11.362;2024-01-27T15:02:10;4.57;;;2.73;;